You are not logged in, Click here to log in
ICAO: RJFT Country: 日本熊本縣益城町
Latitude: 32.8345 Longitude: 130.858
Total Arrivals: 12 Total Departures: 11
Latest Arrival: CI198 (RCKH-RJFT)Lun. Wang Latest Departure: CI1010C (RJFT-RCTP)Lun. Wang
Scenery:
METAR : RJFT 180700Z VRB02KT CAVOK 28/22 Q1007

阿蘇熊本機場 KMJ